AirNav   Everest Fuels
 
 1158 users online  

22PA Uniontown Hospital Heliport
Uniontown, Pennsylvania, USA

GOING TO UNIONTOWN?


FAA INFORMATION EFFECTIVE 05 DECEMBER 2019

Location

FAA Identifier: 22PA
Lat/Long: 39-54-03.2740N 079-44-41.1590W
39-54.054567N 079-44.685983W
39.9009094,-79.7447664
(estimated)
Elevation: 1115 ft. / 340 m (estimated)
Variation: 09W (2000)
Time zone: UTC -5 (UTC -4 during Daylight Saving Time)
Zip code: 15401

Heliport Operations

Heliport use: Private use, MEDICAL
Activation date: 03/1990
Control tower: no
ARTCC: CLEVELAND CENTER
FSS: ALTOONA FLIGHT SERVICE STATION
NOTAMs facility: FDC (NOTAM-D service not available)
Attendance: UNATNDD
Segmented circle: no
Lights: FOR PERIMETER LGTS CALL 412-430-5000

Heliport Communications

CLARKSBURG APPROACH: 126.95
CLARKSBURG DEPARTURE: 126.95
WX AWOS-3 at VVS (5 nm NE): 133.325 (724-626-8745)
WX ASOS at MGW (17 nm SW): 120.675 (304-296-7103)
WX AWOS-3 at FWQ (19 nm N): 118.475 (724-379-5815)
  • APCH/DEP SVC PRVDD BY NORTH CENTRAL WEST VIRGINIA ATCT (CKB) 126.950/239.300.

Nearby radio navigation aids

VOR radial/distance  VOR name  Freq  Var
IHDr262/18.3INDIAN HEAD VORTAC108.2006W
MGWr019/21.3MORGANTOWN VOR/DME111.6005W
AGCr158/26.4ALLEGHENY VOR/DME110.0009W

 
NDB name  Hdg/Dist  Freq  Var  ID
CAMOR008/1.129908WVV ...- ...-
STOYSTOWN264/39.720910WSYS ... -.-- ...

Heliport Services

Runway Information

Helipad H1

Dimensions: 65 x 65 ft. / 20 x 20 m
Surface: asphalt
Runway edge lights: PERIMETER LGTS.
Latitude: 39-54.054567N
Longitude: 079-44.685983W
Elevation: 1115.0 ft.
Traffic pattern: leftleft

Heliport Ownership and Management from official FAA records

Ownership: Privately-owned
Owner: UNIONTOWN HOSPITAL
500 WEST BERKLEY ST
UNIONTOWN, PA 15401
Phone (724) 430-5000
Manager: RANDY HOVATTER
500 WEST BERKLEY ST
UNIONTOWN, PA 15401
DIRECTOR OF FACILITIES MGMT

Additional Remarks

FOR CD CTC CLARKSBURG APCH AT 304-842-2011, WHEN APCH CLSD CTC CLEVELAND ARTCC AT 440-774-0490.

Instrument Procedures

There are no published instrument procedures at 22PA.

Some nearby airports with instrument procedures:

KVVS - Joseph A Hardy Connellsville Airport (5 nm NE)
KMGW - Morgantown Municipal Airport-Walter L. Bill Hart Field (17 nm SW)
KWAY - Greene County Airport (18 nm W)
KFWQ - Rostraver Airport (19 nm N)
G05 - Finleyville Airpark (24 nm NW)
 
Loc | Ops | Rwys | IFR | FBO | Links
Com | Nav | Svcs | Stats | Notes
Area around 22PA (Uniontown Hospital Heliport)
 
Road maps at: MapQuest Bing Google
 
Aerial photo
No photo
 
Sectional chart

 
Airport distance calculator
Flying to Uniontown Hospital Heliport? Find the distance to fly.

From to 22PA

Sunrise and sunset
Times for 07-Dec-2019
 Local
(UTC-5)
 Zulu
(UTC)
Morning civil twilight06:5811:58
Sunrise07:2812:28
Sunset16:5321:53
Evening civil twilight17:2322:23

Current date and time
Zulu (UTC)  08-Dec-2019 02:29:28
Local (UTC-5)  07-Dec-2019 21:29:28
 
METAR
KMGW 
17nm SW 
080153Z 09003KT 10SM CLR M02/M06 A3039 RMK AO2 SLP305 T10171061
KP53 
19nm N 
080156Z AUTO 19013G24KT 01/M03 A2995 RMK AO1 PK WND 19026/0146 SLP152 T00111028
K2G4 
27nm SE 
080220Z AUTO 12007KT 10SM CLR M04/M08 A3031 RMK AO1
KLBE 
27nm NE 
080147Z 00000KT 20SM SKC M04/M06 A3040
KAFJ 
27nm NW 
080156Z AUTO 00000KT 10SM CLR M04/M06 A3041 RMK AO2 SLP314 T10391061 PWINO FZRANO $
KAGC 
28nm N 
080153Z 12004KT 10SM CLR M01/M08 A3037 RMK AO2 SLP305 T10061078
TAF
KMGW 
17nm SW 
071727Z 0718/0818 01003KT P6SM SKC FM080000 13004KT P6SM SCT250
NOTAMs
Click for the latest NOTAMs
NOTAMs are issued by the DoD/FAA and will open in a separate window not controlled by AirNav.

 

 
 

Would you like to see your business listed on this page?

 If your business provides an interesting product or service to pilots, flight crews, aircraft, or users of the Uniontown Hospital Heliport, you should consider listing it here.  To start the listing process, click on the button below
 
Add a business
 

Other Pages about Uniontown Hospital Heliport

Update a link
 
Copyright © AirNav, LLC. All rights reserved. Privacy Policy  Contact